sensor_id;sensor_type;location;lat;lon;timestamp;temperature;humidity
17851;DHT22;9051;51.548;14.348;2022-09-29T00:00:48;6.30;99.90
17851;DHT22;9051;51.548;14.348;2022-09-29T00:03:21;6.30;99.90
17851;DHT22;9051;51.548;14.348;2022-09-29T00:05:54;6.30;99.90
17851;DHT22;9051;51.548;14.348;2022-09-29T00:08:28;6.30;99.90
17851;DHT22;9051;51.548;14.348;2022-09-29T00:11:05;6.30;99.90
17851;DHT22;9051;51.548;14.348;2022-09-29T00:13:39;6.40;99.90
17851;DHT22;9051;51.548;14.348;2022-09-29T00:16:11;6.50;99.90
17851;DHT22;9051;51.548;14.348;2022-09-29T00:18:44;6.40;99.90
17851;DHT22;9051;51.548;14.348;2022-09-29T00:21:17;6.50;99.90
17851;DHT22;9051;51.548;14.348;2022-09-29T00:23:50;6.50;99.90
17851;DHT22;9051;51.548;14.348;2022-09-29T00:26:23;6.50;99.90
17851;DHT22;9051;51.548;14.348;2022-09-29T00:28:57;6.50;99.90
17851;DHT22;9051;51.548;14.348;2022-09-29T00:31:31;6.50;99.90
17851;DHT22;9051;51.548;14.348;2022-09-29T00:34:04;6.50;99.90
17851;DHT22;9051;51.548;14.348;2022-09-29T00:36:36;6.40;99.90
17851;DHT22;9051;51.548;14.348;2022-09-29T00:39:08;6.50;99.90
17851;DHT22;9051;51.548;14.348;2022-09-29T00:41:41;6.50;99.90
17851;DHT22;9051;51.548;14.348;2022-09-29T00:44:56;6.40;99.90
17851;DHT22;9051;51.548;14.348;2022-09-29T00:47:31;6.50;99.90
17851;DHT22;9051;51.548;14.348;2022-09-29T00:50:12;6.50;99.90
17851;DHT22;9051;51.548;14.348;2022-09-29T00:52:49;6.50;99.90
17851;DHT22;9051;51.548;14.348;2022-09-29T00:55:26;6.40;99.90
17851;DHT22;9051;51.548;14.348;2022-09-29T00:58:08;6.50;99.90
17851;DHT22;9051;51.548;14.348;2022-09-29T01:00:47;6.50;99.90
17851;DHT22;9051;51.548;14.348;2022-09-29T01:03:20;6.40;99.90
17851;DHT22;9051;51.548;14.348;2022-09-29T01:05:57;6.40;99.90
17851;DHT22;9051;51.548;14.348;2022-09-29T01:08:35;6.40;99.90
17851;DHT22;9051;51.548;14.348;2022-09-29T01:11:10;6.40;99.90
17851;DHT22;9051;51.548;14.348;2022-09-29T01:13:44;6.40;99.90
17851;DHT22;9051;51.548;14.348;2022-09-29T01:16:18;6.40;99.90
17851;DHT22;9051;51.548;14.348;2022-09-29T01:18:50;6.40;99.90
17851;DHT22;9051;51.548;14.348;2022-09-29T01:21:30;6.40;99.90
17851;DHT22;9051;51.548;14.348;2022-09-29T01:24:30;6.40;99.90
17851;DHT22;9051;51.548;14.348;2022-09-29T01:27:14;6.30;99.90
17851;DHT22;9051;51.548;14.348;2022-09-29T01:30:09;6.30;99.90
17851;DHT22;9051;51.548;14.348;2022-09-29T01:33:03;6.40;99.90
17851;DHT22;9051;51.548;14.348;2022-09-29T01:35:48;6.40;99.90
17851;DHT22;9051;51.548;14.348;2022-09-29T01:38:34;6.40;99.90
17851;DHT22;9051;51.548;14.348;2022-09-29T01:41:13;6.30;99.90
17851;DHT22;9051;51.548;14.348;2022-09-29T01:43:51;6.40;99.90
17851;DHT22;9051;51.548;14.348;2022-09-29T01:46:27;6.40;99.90
17851;DHT22;9051;51.548;14.348;2022-09-29T01:49:03;6.40;99.90
17851;DHT22;9051;51.548;14.348;2022-09-29T01:51:40;6.40;99.90
17851;DHT22;9051;51.548;14.348;2022-09-29T01:54:17;6.40;99.90
17851;DHT22;9051;51.548;14.348;2022-09-29T01:56:52;6.40;99.90
17851;DHT22;9051;51.548;14.348;2022-09-29T01:59:29;6.50;99.90
17851;DHT22;9051;51.548;14.348;2022-09-29T02:02:08;6.50;99.90
17851;DHT22;9051;51.548;14.348;2022-09-29T02:04:47;6.50;99.90
17851;DHT22;9051;51.548;14.348;2022-09-29T02:07:25;6.40;99.90
17851;DHT22;9051;51.548;14.348;2022-09-29T02:10:02;6.50;99.90
17851;DHT22;9051;51.548;14.348;2022-09-29T02:12:36;6.50;99.90
17851;DHT22;9051;51.548;14.348;2022-09-29T02:15:11;6.50;99.90
17851;DHT22;9051;51.548;14.348;2022-09-29T02:17:47;6.50;99.90
17851;DHT22;9051;51.548;14.348;2022-09-29T02:20:21;6.50;99.90
17851;DHT22;9051;51.548;14.348;2022-09-29T02:22:54;6.50;99.90
17851;DHT22;9051;51.548;14.348;2022-09-29T02:25:27;6.50;99.90
17851;DHT22;9051;51.548;14.348;2022-09-29T02:27:59;6.50;99.90
17851;DHT22;9051;51.548;14.348;2022-09-29T02:30:31;6.50;99.90
17851;DHT22;9051;51.548;14.348;2022-09-29T02:33:04;6.50;99.90
17851;DHT22;9051;51.548;14.348;2022-09-29T02:35:43;6.50;99.90
17851;DHT22;9051;51.548;14.348;2022-09-29T02:38:23;6.60;99.90
17851;DHT22;9051;51.548;14.348;2022-09-29T02:41:05;6.60;99.90
17851;DHT22;9051;51.548;14.348;2022-09-29T02:43:52;6.60;99.90
17851;DHT22;9051;51.548;14.348;2022-09-29T02:46:39;6.60;99.90
17851;DHT22;9051;51.548;14.348;2022-09-29T02:49:26;6.70;99.90
17851;DHT22;9051;51.548;14.348;2022-09-29T02:52:11;6.70;99.90
17851;DHT22;9051;51.548;14.348;2022-09-29T02:54:53;6.70;99.90
17851;DHT22;9051;51.548;14.348;2022-09-29T02:57:32;6.70;99.90
17851;DHT22;9051;51.548;14.348;2022-09-29T03:00:12;6.70;99.90
17851;DHT22;9051;51.548;14.348;2022-09-29T03:02:45;6.60;99.90
17851;DHT22;9051;51.548;14.348;2022-09-29T03:05:19;6.60;99.90
17851;DHT22;9051;51.548;14.348;2022-09-29T03:07:53;6.60;99.90
17851;DHT22;9051;51.548;14.348;2022-09-29T03:10:25;6.60;99.90
17851;DHT22;9051;51.548;14.348;2022-09-29T03:12:57;6.60;99.90
17851;DHT22;9051;51.548;14.348;2022-09-29T03:15:29;6.60;99.90
17851;DHT22;9051;51.548;14.348;2022-09-29T03:18:01;6.60;99.90
17851;DHT22;9051;51.548;14.348;2022-09-29T03:20:34;6.60;99.90
17851;DHT22;9051;51.548;14.348;2022-09-29T03:23:07;6.60;99.90
17851;DHT22;9051;51.548;14.348;2022-09-29T03:25:39;6.70;99.90
17851;DHT22;9051;51.548;14.348;2022-09-29T03:28:12;6.70;99.90
17851;DHT22;9051;51.548;14.348;2022-09-29T03:30:46;6.70;99.90
17851;DHT22;9051;51.548;14.348;2022-09-29T03:33:18;6.70;99.90
17851;DHT22;9051;51.548;14.348;2022-09-29T03:35:49;6.70;99.90
17851;DHT22;9051;51.548;14.348;2022-09-29T03:38:23;6.70;99.90
17851;DHT22;9051;51.548;14.348;2022-09-29T03:40:55;6.70;99.90
17851;DHT22;9051;51.548;14.348;2022-09-29T03:47:19;6.70;99.90
17851;DHT22;9051;51.548;14.348;2022-09-29T03:49:52;6.70;99.90
17851;DHT22;9051;51.548;14.348;2022-09-29T03:52:23;6.70;99.90
17851;DHT22;9051;51.548;14.348;2022-09-29T03:54:57;6.70;99.90
17851;DHT22;9051;51.548;14.348;2022-09-29T03:57:29;6.70;99.90
17851;DHT22;9051;51.548;14.348;2022-09-29T04:00:01;6.70;99.90
17851;DHT22;9051;51.548;14.348;2022-09-29T04:02:38;6.70;99.90
17851;DHT22;9051;51.548;14.348;2022-09-29T04:05:10;6.70;99.90
17851;DHT22;9051;51.548;14.348;2022-09-29T04:07:42;6.70;99.90
17851;DHT22;9051;51.548;14.348;2022-09-29T04:10:16;6.70;99.90
17851;DHT22;9051;51.548;14.348;2022-09-29T04:12:48;6.70;99.90
17851;DHT22;9051;51.548;14.348;2022-09-29T04:15:20;6.70;99.90
17851;DHT22;9051;51.548;14.348;2022-09-29T04:17:52;6.70;99.90
17851;DHT22;9051;51.548;14.348;2022-09-29T04:20:24;6.70;99.90
17851;DHT22;9051;51.548;14.348;2022-09-29T04:22:56;6.70;99.90
17851;DHT22;9051;51.548;14.348;2022-09-29T04:25:30;6.70;99.90
17851;DHT22;9051;51.548;14.348;2022-09-29T04:28:02;6.70;99.90
17851;DHT22;9051;51.548;14.348;2022-09-29T04:30:34;6.70;99.90
17851;DHT22;9051;51.548;14.348;2022-09-29T04:33:06;6.70;99.90
17851;DHT22;9051;51.548;14.348;2022-09-29T04:35:39;6.70;99.90
17851;DHT22;9051;51.548;14.348;2022-09-29T04:38:11;6.70;99.90
17851;DHT22;9051;51.548;14.348;2022-09-29T04:40:46;6.80;99.90
17851;DHT22;9051;51.548;14.348;2022-09-29T04:43:18;6.80;99.90
17851;DHT22;9051;51.548;14.348;2022-09-29T04:45:50;6.80;99.90
17851;DHT22;9051;51.548;14.348;2022-09-29T04:48:22;6.80;99.90
17851;DHT22;9051;51.548;14.348;2022-09-29T04:50:54;6.80;99.90
17851;DHT22;9051;51.548;14.348;2022-09-29T04:53:26;6.90;99.90
17851;DHT22;9051;51.548;14.348;2022-09-29T04:56:04;6.90;99.90
17851;DHT22;9051;51.548;14.348;2022-09-29T04:58:36;6.90;99.90
17851;DHT22;9051;51.548;14.348;2022-09-29T05:01:10;6.80;99.90
17851;DHT22;9051;51.548;14.348;2022-09-29T05:03:43;6.90;99.90
17851;DHT22;9051;51.548;14.348;2022-09-29T05:06:15;6.90;99.90
17851;DHT22;9051;51.548;14.348;2022-09-29T05:08:48;6.90;99.90
17851;DHT22;9051;51.548;14.348;2022-09-29T05:11:21;6.90;99.90
17851;DHT22;9051;51.548;14.348;2022-09-29T05:13:53;6.90;99.90
17851;DHT22;9051;51.548;14.348;2022-09-29T05:16:25;6.90;99.90
17851;DHT22;9051;51.548;14.348;2022-09-29T05:18:57;7.00;99.90
17851;DHT22;9051;51.548;14.348;2022-09-29T05:21:29;7.00;99.90
17851;DHT22;9051;51.548;14.348;2022-09-29T05:24:01;7.00;99.90
17851;DHT22;9051;51.548;14.348;2022-09-29T05:26:34;7.00;99.90
17851;DHT22;9051;51.548;14.348;2022-09-29T05:29:06;7.10;99.90
17851;DHT22;9051;51.548;14.348;2022-09-29T05:31:38;7.10;99.90
17851;DHT22;9051;51.548;14.348;2022-09-29T05:34:10;7.10;99.90
17851;DHT22;9051;51.548;14.348;2022-09-29T05:36:42;7.10;99.90
17851;DHT22;9051;51.548;14.348;2022-09-29T05:39:15;7.10;99.90
17851;DHT22;9051;51.548;14.348;2022-09-29T05:41:48;7.10;99.90
17851;DHT22;9051;51.548;14.348;2022-09-29T05:44:20;7.20;99.90
17851;DHT22;9051;51.548;14.348;2022-09-29T05:46:52;7.20;99.90
17851;DHT22;9051;51.548;14.348;2022-09-29T05:49:24;7.20;99.90
17851;DHT22;9051;51.548;14.348;2022-09-29T05:51:56;7.20;99.90
17851;DHT22;9051;51.548;14.348;2022-09-29T05:54:28;7.30;99.90
17851;DHT22;9051;51.548;14.348;2022-09-29T05:57:02;7.30;99.90
17851;DHT22;9051;51.548;14.348;2022-09-29T05:59:34;7.30;99.90
17851;DHT22;9051;51.548;14.348;2022-09-29T06:02:06;7.30;99.90
17851;DHT22;9051;51.548;14.348;2022-09-29T06:04:38;7.30;99.90
17851;DHT22;9051;51.548;14.348;2022-09-29T06:07:10;7.40;99.90
17851;DHT22;9051;51.548;14.348;2022-09-29T06:09:42;7.40;99.90
17851;DHT22;9051;51.548;14.348;2022-09-29T06:12:15;7.40;99.90
17851;DHT22;9051;51.548;14.348;2022-09-29T06:14:47;7.50;99.90
17851;DHT22;9051;51.548;14.348;2022-09-29T06:17:19;7.50;99.90
17851;DHT22;9051;51.548;14.348;2022-09-29T06:19:51;7.50;99.90
17851;DHT22;9051;51.548;14.348;2022-09-29T06:22:23;7.50;99.90
17851;DHT22;9051;51.548;14.348;2022-09-29T06:24:57;7.60;99.90
17851;DHT22;9051;51.548;14.348;2022-09-29T06:27:31;7.60;99.90
17851;DHT22;9051;51.548;14.348;2022-09-29T06:30:04;7.60;99.90
17851;DHT22;9051;51.548;14.348;2022-09-29T06:32:36;7.70;99.90
17851;DHT22;9051;51.548;14.348;2022-09-29T06:35:08;7.70;99.90
17851;DHT22;9051;51.548;14.348;2022-09-29T06:37:57;7.80;99.90
17851;DHT22;9051;51.548;14.348;2022-09-29T06:40:29;7.90;99.90
17851;DHT22;9051;51.548;14.348;2022-09-29T06:43:03;7.90;99.90
17851;DHT22;9051;51.548;14.348;2022-09-29T06:45:36;8.00;99.90
17851;DHT22;9051;51.548;14.348;2022-09-29T06:48:08;8.00;99.90
17851;DHT22;9051;51.548;14.348;2022-09-29T06:50:41;8.00;99.90
17851;DHT22;9051;51.548;14.348;2022-09-29T06:53:13;8.00;99.90
17851;DHT22;9051;51.548;14.348;2022-09-29T06:55:51;8.00;99.90
17851;DHT22;9051;51.548;14.348;2022-09-29T06:58:24;8.00;99.90
17851;DHT22;9051;51.548;14.348;2022-09-29T07:00:59;8.00;99.90
17851;DHT22;9051;51.548;14.348;2022-09-29T07:03:31;8.00;99.90
17851;DHT22;9051;51.548;14.348;2022-09-29T07:06:06;8.00;99.90
17851;DHT22;9051;51.548;14.348;2022-09-29T07:08:38;8.00;99.90
17851;DHT22;9051;51.548;14.348;2022-09-29T07:11:10;8.00;99.90
17851;DHT22;9051;51.548;14.348;2022-09-29T07:13:43;8.00;99.90
17851;DHT22;9051;51.548;14.348;2022-09-29T07:16:16;8.00;99.90
17851;DHT22;9051;51.548;14.348;2022-09-29T07:18:48;7.90;99.90
17851;DHT22;9051;51.548;14.348;2022-09-29T07:21:20;7.90;99.90
17851;DHT22;9051;51.548;14.348;2022-09-29T07:23:52;7.90;99.90
17851;DHT22;9051;51.548;14.348;2022-09-29T07:26:24;8.00;99.90
17851;DHT22;9051;51.548;14.348;2022-09-29T07:28:58;8.00;99.90
17851;DHT22;9051;51.548;14.348;2022-09-29T07:31:30;8.00;99.90
17851;DHT22;9051;51.548;14.348;2022-09-29T07:34:01;8.10;99.90
17851;DHT22;9051;51.548;14.348;2022-09-29T07:36:33;8.20;99.90
17851;DHT22;9051;51.548;14.348;2022-09-29T07:39:08;8.30;99.90
17851;DHT22;9051;51.548;14.348;2022-09-29T07:41:40;8.50;99.90
17851;DHT22;9051;51.548;14.348;2022-09-29T07:44:14;8.60;99.90
17851;DHT22;9051;51.548;14.348;2022-09-29T07:46:47;8.70;99.90
17851;DHT22;9051;51.548;14.348;2022-09-29T07:49:19;8.70;99.90
17851;DHT22;9051;51.548;14.348;2022-09-29T07:51:51;8.80;99.90
17851;DHT22;9051;51.548;14.348;2022-09-29T07:54:23;8.80;99.90
17851;DHT22;9051;51.548;14.348;2022-09-29T07:56:55;8.80;99.90
17851;DHT22;9051;51.548;14.348;2022-09-29T07:59:31;8.80;99.90
17851;DHT22;9051;51.548;14.348;2022-09-29T08:02:03;8.80;99.90
17851;DHT22;9051;51.548;14.348;2022-09-29T08:04:37;8.80;99.90
17851;DHT22;9051;51.548;14.348;2022-09-29T08:07:09;8.80;99.90
17851;DHT22;9051;51.548;14.348;2022-09-29T08:09:41;8.80;99.90
17851;DHT22;9051;51.548;14.348;2022-09-29T08:12:13;8.90;99.90
17851;DHT22;9051;51.548;14.348;2022-09-29T08:14:46;8.90;99.90
17851;DHT22;9051;51.548;14.348;2022-09-29T08:17:19;8.90;99.90
17851;DHT22;9051;51.548;14.348;2022-09-29T08:19:51;8.90;99.90
17851;DHT22;9051;51.548;14.348;2022-09-29T08:22:22;8.90;99.90
17851;DHT22;9051;51.548;14.348;2022-09-29T08:24:54;9.00;99.90
17851;DHT22;9051;51.548;14.348;2022-09-29T08:27:27;8.90;99.90
17851;DHT22;9051;51.548;14.348;2022-09-29T08:30:01;9.00;99.90
17851;DHT22;9051;51.548;14.348;2022-09-29T08:32:33;9.10;99.90
17851;DHT22;9051;51.548;14.348;2022-09-29T08:35:05;9.20;99.90
17851;DHT22;9051;51.548;14.348;2022-09-29T08:37:37;9.20;99.90
17851;DHT22;9051;51.548;14.348;2022-09-29T08:40:09;9.20;99.90
17851;DHT22;9051;51.548;14.348;2022-09-29T08:42:49;9.30;99.90
17851;DHT22;9051;51.548;14.348;2022-09-29T08:45:27;9.40;99.90
17851;DHT22;9051;51.548;14.348;2022-09-29T08:48:04;9.50;99.90
17851;DHT22;9051;51.548;14.348;2022-09-29T08:50:41;9.60;99.90
17851;DHT22;9051;51.548;14.348;2022-09-29T08:53:17;9.70;99.90
17851;DHT22;9051;51.548;14.348;2022-09-29T08:55:54;9.70;99.90
17851;DHT22;9051;51.548;14.348;2022-09-29T08:58:27;9.70;99.90
17851;DHT22;9051;51.548;14.348;2022-09-29T09:01:11;9.70;99.90
17851;DHT22;9051;51.548;14.348;2022-09-29T09:04:05;9.80;99.90
17851;DHT22;9051;51.548;14.348;2022-09-29T09:06:48;10.00;99.90
17851;DHT22;9051;51.548;14.348;2022-09-29T09:09:37;10.10;99.90
17851;DHT22;9051;51.548;14.348;2022-09-29T09:12:21;10.10;99.90
17851;DHT22;9051;51.548;14.348;2022-09-29T09:18:02;10.30;99.90
17851;DHT22;9051;51.548;14.348;2022-09-29T09:20:44;10.50;99.90
17851;DHT22;9051;51.548;14.348;2022-09-29T09:23:21;10.80;99.90
17851;DHT22;9051;51.548;14.348;2022-09-29T09:25:55;10.90;99.90
17851;DHT22;9051;51.548;14.348;2022-09-29T09:28:32;11.10;99.90
17851;DHT22;9051;51.548;14.348;2022-09-29T09:31:08;11.10;99.90
17851;DHT22;9051;51.548;14.348;2022-09-29T09:33:46;11.30;99.90
17851;DHT22;9051;51.548;14.348;2022-09-29T09:36:24;11.30;99.90
17851;DHT22;9051;51.548;14.348;2022-09-29T09:39:03;11.40;99.90
17851;DHT22;9051;51.548;14.348;2022-09-29T09:41:40;11.50;99.90
17851;DHT22;9051;51.548;14.348;2022-09-29T09:44:14;11.50;99.90
17851;DHT22;9051;51.548;14.348;2022-09-29T09:46:49;11.50;99.90
17851;DHT22;9051;51.548;14.348;2022-09-29T09:49:28;11.40;99.90
17851;DHT22;9051;51.548;14.348;2022-09-29T09:52:03;11.40;99.90
17851;DHT22;9051;51.548;14.348;2022-09-29T09:54:42;11.50;99.90
17851;DHT22;9051;51.548;14.348;2022-09-29T09:57:52;11.50;99.90
17851;DHT22;9051;51.548;14.348;2022-09-29T10:00:31;11.50;99.90
17851;DHT22;9051;51.548;14.348;2022-09-29T10:03:06;11.60;99.90
17851;DHT22;9051;51.548;14.348;2022-09-29T10:05:42;11.80;99.90
17851;DHT22;9051;51.548;14.348;2022-09-29T10:08:19;12.00;99.90
17851;DHT22;9051;51.548;14.348;2022-09-29T10:10:54;12.10;99.90
17851;DHT22;9051;51.548;14.348;2022-09-29T10:13:28;12.10;99.90
17851;DHT22;9051;51.548;14.348;2022-09-29T10:16:12;12.20;99.90
17851;DHT22;9051;51.548;14.348;2022-09-29T10:18:47;12.30;99.90
17851;DHT22;9051;51.548;14.348;2022-09-29T10:21:35;12.30;99.90
17851;DHT22;9051;51.548;14.348;2022-09-29T10:24:21;12.20;99.90
17851;DHT22;9051;51.548;14.348;2022-09-29T10:27:28;12.00;99.90
17851;DHT22;9051;51.548;14.348;2022-09-29T10:30:01;11.80;99.90
17851;DHT22;9051;51.548;14.348;2022-09-29T10:32:33;11.80;99.90
17851;DHT22;9051;51.548;14.348;2022-09-29T10:35:16;11.80;99.90
17851;DHT22;9051;51.548;14.348;2022-09-29T10:37:59;11.80;99.90
17851;DHT22;9051;51.548;14.348;2022-09-29T10:40:31;11.90;99.90
17851;DHT22;9051;51.548;14.348;2022-09-29T10:43:22;11.90;99.90
17851;DHT22;9051;51.548;14.348;2022-09-29T10:45:54;12.10;99.90
17851;DHT22;9051;51.548;14.348;2022-09-29T10:48:28;12.10;99.90
17851;DHT22;9051;51.548;14.348;2022-09-29T10:51:02;12.10;99.90
17851;DHT22;9051;51.548;14.348;2022-09-29T10:53:37;12.20;99.90
17851;DHT22;9051;51.548;14.348;2022-09-29T10:56:17;12.20;99.90
17851;DHT22;9051;51.548;14.348;2022-09-29T10:58:53;12.30;99.90
17851;DHT22;9051;51.548;14.348;2022-09-29T11:01:26;12.30;99.90
17851;DHT22;9051;51.548;14.348;2022-09-29T11:04:01;12.30;99.90
17851;DHT22;9051;51.548;14.348;2022-09-29T11:06:35;12.50;99.90
17851;DHT22;9051;51.548;14.348;2022-09-29T11:09:26;12.70;99.90
17851;DHT22;9051;51.548;14.348;2022-09-29T11:11:59;13.00;99.90
17851;DHT22;9051;51.548;14.348;2022-09-29T11:14:39;13.30;99.90
17851;DHT22;9051;51.548;14.348;2022-09-29T11:17:20;13.60;99.90
17851;DHT22;9051;51.548;14.348;2022-09-29T11:19:55;13.70;99.90
17851;DHT22;9051;51.548;14.348;2022-09-29T11:22:53;13.90;99.90
17851;DHT22;9051;51.548;14.348;2022-09-29T11:31:47;14.50;99.90
17851;DHT22;9051;51.548;14.348;2022-09-29T11:34:42;14.40;99.90
17851;DHT22;9051;51.548;14.348;2022-09-29T11:37:28;14.60;99.90
17851;DHT22;9051;51.548;14.348;2022-09-29T11:40:10;14.70;99.90
17851;DHT22;9051;51.548;14.348;2022-09-29T11:42:54;14.70;99.90
17851;DHT22;9051;51.548;14.348;2022-09-29T11:45:37;14.60;99.90
17851;DHT22;9051;51.548;14.348;2022-09-29T11:48:26;14.50;99.90
17851;DHT22;9051;51.548;14.348;2022-09-29T11:51:10;14.30;99.90
17851;DHT22;9051;51.548;14.348;2022-09-29T11:53:56;14.20;99.90
17851;DHT22;9051;51.548;14.348;2022-09-29T11:56:39;14.10;99.90
17851;DHT22;9051;51.548;14.348;2022-09-29T11:59:49;14.00;99.90
17851;DHT22;9051;51.548;14.348;2022-09-29T12:02:41;14.00;99.90
17851;DHT22;9051;51.548;14.348;2022-09-29T12:05:20;14.10;99.90
17851;DHT22;9051;51.548;14.348;2022-09-29T12:08:03;14.00;99.90
17851;DHT22;9051;51.548;14.348;2022-09-29T12:10:48;13.90;99.90
17851;DHT22;9051;51.548;14.348;2022-09-29T12:13:37;13.90;99.90
17851;DHT22;9051;51.548;14.348;2022-09-29T12:16:15;13.90;99.90
17851;DHT22;9051;51.548;14.348;2022-09-29T12:18:52;13.90;99.90
17851;DHT22;9051;51.548;14.348;2022-09-29T12:21:31;13.90;99.90
17851;DHT22;9051;51.548;14.348;2022-09-29T12:24:06;13.80;99.90
17851;DHT22;9051;51.548;14.348;2022-09-29T12:26:39;13.70;99.90
17851;DHT22;9051;51.548;14.348;2022-09-29T12:29:30;13.60;99.90
17851;DHT22;9051;51.548;14.348;2022-09-29T12:32:10;13.70;99.90
17851;DHT22;9051;51.548;14.348;2022-09-29T12:34:45;13.70;99.90
17851;DHT22;9051;51.548;14.348;2022-09-29T12:37:24;13.70;99.90
17851;DHT22;9051;51.548;14.348;2022-09-29T12:40:02;13.70;99.90
17851;DHT22;9051;51.548;14.348;2022-09-29T12:42:58;13.70;99.90
17851;DHT22;9051;51.548;14.348;2022-09-29T12:45:39;13.70;99.90
17851;DHT22;9051;51.548;14.348;2022-09-29T12:48:26;13.70;99.90
17851;DHT22;9051;51.548;14.348;2022-09-29T12:51:01;13.70;99.90
17851;DHT22;9051;51.548;14.348;2022-09-29T12:53:38;13.70;99.90
17851;DHT22;9051;51.548;14.348;2022-09-29T12:56:15;13.70;99.90
17851;DHT22;9051;51.548;14.348;2022-09-29T12:58:53;13.70;99.90
17851;DHT22;9051;51.548;14.348;2022-09-29T13:01:28;13.70;99.90
17851;DHT22;9051;51.548;14.348;2022-09-29T13:04:33;13.80;99.90
17851;DHT22;9051;51.548;14.348;2022-09-29T13:07:43;14.30;99.90
17851;DHT22;9051;51.548;14.348;2022-09-29T13:10:41;14.70;99.90
17851;DHT22;9051;51.548;14.348;2022-09-29T13:16:37;15.40;99.90
17851;DHT22;9051;51.548;14.348;2022-09-29T13:19:44;15.20;99.90
17851;DHT22;9051;51.548;14.348;2022-09-29T13:22:37;14.90;99.90
17851;DHT22;9051;51.548;14.348;2022-09-29T13:25:20;14.70;99.90
17851;DHT22;9051;51.548;14.348;2022-09-29T13:27:55;14.60;99.90
17851;DHT22;9051;51.548;14.348;2022-09-29T13:30:29;14.30;99.90
17851;DHT22;9051;51.548;14.348;2022-09-29T13:33:09;14.10;99.90
17851;DHT22;9051;51.548;14.348;2022-09-29T13:35:45;14.00;99.90
17851;DHT22;9051;51.548;14.348;2022-09-29T13:38:21;14.00;99.90
17851;DHT22;9051;51.548;14.348;2022-09-29T13:41:09;14.30;99.90
17851;DHT22;9051;51.548;14.348;2022-09-29T13:44:04;14.40;99.90
17851;DHT22;9051;51.548;14.348;2022-09-29T13:46:38;14.50;99.90
17851;DHT22;9051;51.548;14.348;2022-09-29T13:49:22;14.40;99.90
17851;DHT22;9051;51.548;14.348;2022-09-29T13:51:58;14.50;99.90
17851;DHT22;9051;51.548;14.348;2022-09-29T13:54:37;14.50;99.90
17851;DHT22;9051;51.548;14.348;2022-09-29T13:57:21;14.60;99.90
17851;DHT22;9051;51.548;14.348;2022-09-29T14:00:23;14.60;99.90
17851;DHT22;9051;51.548;14.348;2022-09-29T14:03:05;14.70;99.90
17851;DHT22;9051;51.548;14.348;2022-09-29T14:05:53;14.70;99.90
17851;DHT22;9051;51.548;14.348;2022-09-29T14:08:29;14.80;99.90
17851;DHT22;9051;51.548;14.348;2022-09-29T14:11:17;14.70;99.90
17851;DHT22;9051;51.548;14.348;2022-09-29T14:13:57;14.70;99.90
17851;DHT22;9051;51.548;14.348;2022-09-29T14:16:43;14.60;99.90
17851;DHT22;9051;51.548;14.348;2022-09-29T14:19:29;14.70;99.90
17851;DHT22;9051;51.548;14.348;2022-09-29T14:22:07;14.70;99.90
17851;DHT22;9051;51.548;14.348;2022-09-29T14:25:27;14.60;99.90
17851;DHT22;9051;51.548;14.348;2022-09-29T14:28:03;14.60;99.90
17851;DHT22;9051;51.548;14.348;2022-09-29T14:30:42;14.60;99.90
17851;DHT22;9051;51.548;14.348;2022-09-29T14:33:18;14.70;99.90
17851;DHT22;9051;51.548;14.348;2022-09-29T14:36:00;14.80;99.90
17851;DHT22;9051;51.548;14.348;2022-09-29T14:38:36;14.80;99.90
17851;DHT22;9051;51.548;14.348;2022-09-29T14:41:24;14.80;99.90
17851;DHT22;9051;51.548;14.348;2022-09-29T14:44:00;14.60;99.90
17851;DHT22;9051;51.548;14.348;2022-09-29T14:50:24;14.30;99.90
17851;DHT22;9051;51.548;14.348;2022-09-29T14:53:29;14.30;99.90
17851;DHT22;9051;51.548;14.348;2022-09-29T14:56:14;14.40;99.90
17851;DHT22;9051;51.548;14.348;2022-09-29T14:58:59;14.60;99.90
17851;DHT22;9051;51.548;14.348;2022-09-29T15:01:34;14.60;99.90
17851;DHT22;9051;51.548;14.348;2022-09-29T15:04:11;14.50;99.90
17851;DHT22;9051;51.548;14.348;2022-09-29T15:06:47;14.30;99.90
17851;DHT22;9051;51.548;14.348;2022-09-29T15:09:21;14.20;99.90
17851;DHT22;9051;51.548;14.348;2022-09-29T15:11:54;14.40;99.90
17851;DHT22;9051;51.548;14.348;2022-09-29T15:14:30;14.50;99.90
17851;DHT22;9051;51.548;14.348;2022-09-29T15:17:07;14.60;99.90
17851;DHT22;9051;51.548;14.348;2022-09-29T15:19:49;14.70;99.90
17851;DHT22;9051;51.548;14.348;2022-09-29T15:22:51;14.70;99.90
17851;DHT22;9051;51.548;14.348;2022-09-29T15:25:28;14.80;99.90
17851;DHT22;9051;51.548;14.348;2022-09-29T15:28:02;14.80;99.90
17851;DHT22;9051;51.548;14.348;2022-09-29T15:30:35;14.80;99.90
17851;DHT22;9051;51.548;14.348;2022-09-29T15:33:16;14.90;99.90
17851;DHT22;9051;51.548;14.348;2022-09-29T15:35:52;14.80;99.90
17851;DHT22;9051;51.548;14.348;2022-09-29T15:38:34;14.80;99.90
17851;DHT22;9051;51.548;14.348;2022-09-29T15:46:38;14.60;99.90
17851;DHT22;9051;51.548;14.348;2022-09-29T15:49:14;14.60;99.90
17851;DHT22;9051;51.548;14.348;2022-09-29T15:51:55;14.50;99.90
17851;DHT22;9051;51.548;14.348;2022-09-29T15:54:29;14.40;99.90
17851;DHT22;9051;51.548;14.348;2022-09-29T15:57:05;14.30;99.90
17851;DHT22;9051;51.548;14.348;2022-09-29T15:59:55;14.20;99.90
17851;DHT22;9051;51.548;14.348;2022-09-29T16:02:33;14.10;99.90
17851;DHT22;9051;51.548;14.348;2022-09-29T16:05:10;14.00;99.90
17851;DHT22;9051;51.548;14.348;2022-09-29T16:07:48;13.80;99.90
17851;DHT22;9051;51.548;14.348;2022-09-29T16:10:22;13.70;99.90
17851;DHT22;9051;51.548;14.348;2022-09-29T16:12:57;13.60;99.90
17851;DHT22;9051;51.548;14.348;2022-09-29T16:15:33;13.50;99.90
17851;DHT22;9051;51.548;14.348;2022-09-29T16:18:09;13.30;99.90
17851;DHT22;9051;51.548;14.348;2022-09-29T16:20:44;13.10;99.90
17851;DHT22;9051;51.548;14.348;2022-09-29T16:23:19;13.00;99.90
17851;DHT22;9051;51.548;14.348;2022-09-29T16:26:13;12.80;99.90
17851;DHT22;9051;51.548;14.348;2022-09-29T16:29:02;12.70;99.90
17851;DHT22;9051;51.548;14.348;2022-09-29T16:31:37;12.60;99.90
17851;DHT22;9051;51.548;14.348;2022-09-29T16:34:22;12.40;99.90
17851;DHT22;9051;51.548;14.348;2022-09-29T16:36:57;12.20;99.90
17851;DHT22;9051;51.548;14.348;2022-09-29T16:39:30;12.00;99.90
17851;DHT22;9051;51.548;14.348;2022-09-29T16:42:03;11.80;99.90
17851;DHT22;9051;51.548;14.348;2022-09-29T16:44:41;11.70;99.90
17851;DHT22;9051;51.548;14.348;2022-09-29T16:47:15;11.50;99.90
17851;DHT22;9051;51.548;14.348;2022-09-29T16:49:51;11.40;99.90
17851;DHT22;9051;51.548;14.348;2022-09-29T16:52:25;11.30;99.90
17851;DHT22;9051;51.548;14.348;2022-09-29T16:55:17;11.30;99.90
17851;DHT22;9051;51.548;14.348;2022-09-29T16:57:53;11.20;99.90
17851;DHT22;9051;51.548;14.348;2022-09-29T17:00:25;11.10;99.90
17851;DHT22;9051;51.548;14.348;2022-09-29T17:02:58;11.10;99.90
17851;DHT22;9051;51.548;14.348;2022-09-29T17:05:37;11.00;99.90
17851;DHT22;9051;51.548;14.348;2022-09-29T17:08:14;10.90;99.90
17851;DHT22;9051;51.548;14.348;2022-09-29T17:10:47;10.80;99.90